Time;durP1;ratioP1;P1;durP2;ratioP2;P2;SDS_P1;SDS_P2;PMS_P1;PMS_P2;Temp;Humidity;BMP_temperature;BMP_pressure;BME280_temperature;BME280_humidity;BME280_pressure;Samples;Min_cycle;Max_cycle;Signal;HPM_P1;HPM_P2
2022/08/02 00:00:27;;;;;;;;;;;;;;;18.48;62.71;101429.53;5062915;28;19975;-91
2022/08/02 00:02:53;;;;;;;;;;;;;;;18.46;62.92;101432.19;5065235;28;19952;-91
2022/08/02 00:05:18;;;;;;;;;;;;;;;18.44;62.75;101431.38;5067268;28;20371;-92
2022/08/02 00:07:43;;;;;;;;;;;;;;;18.43;62.80;101432.28;5061687;28;19962;-91
2022/08/02 00:10:09;;;;;;;;;;;;;;;18.40;62.83;101424.53;5063215;28;19955;-92
2022/08/02 00:12:35;;;;;;;;;;;;;;;18.39;62.40;101428.06;5061944;28;19924;-92
2022/08/02 00:15:00;;;;;;;;;;;;;;;18.39;62.61;101427.25;5068581;28;19966;-91
2022/08/02 00:17:26;;;;;;;;;;;;;;;18.40;62.66;101424.53;5041096;28;20055;-92
2022/08/02 00:19:51;;;;;;;;;;;;;;;18.38;62.61;101434.28;5062117;28;20031;-91
2022/08/02 00:22:16;;;;;;;;;;;;;;;18.35;62.81;101434.41;5067578;28;20444;-88
2022/08/02 00:24:42;;;;;;;;;;;;;;;18.33;62.56;101428.38;5081921;28;20651;-88
2022/08/02 00:27:07;;;;;;;;;;;;;;;18.34;62.57;101435.31;5072381;28;19921;-88
2022/08/02 00:29:33;;;;;;;;;;;;;;;18.32;62.35;101425.78;5061570;28;20032;-88
2022/08/02 00:31:58;;;;;;;;;;;;;;;18.31;62.36;101427.56;5056263;28;19931;-88
2022/08/02 00:34:23;;;;;;;;;;;;;;;18.27;62.39;101427.78;5036868;28;19927;-88
2022/08/02 00:36:49;;;;;;;;;;;;;;;18.26;62.90;101426.91;5056487;28;19955;-88
2022/08/02 00:39:14;;;;;;;;;;;;;;;18.26;62.72;101432.16;5063601;28;19928;-89
2022/08/02 00:41:47;;;;;;;;;;;;;;;18.29;62.58;101428.53;5053842;28;19920;-88
2022/08/02 00:44:13;;;;;;;;;;;;;;;18.28;62.91;101430.31;5063974;28;20294;-88
2022/08/02 00:46:38;;;;;;;;;;;;;;;18.24;62.75;101428.75;5043627;28;19925;-88
2022/08/02 00:49:03;;;;;;;;;;;;;;;18.22;62.86;101433.22;5041359;28;19966;-88
2022/08/02 00:51:28;;;;;;;;;;;;;;;18.20;62.85;101428.94;5064594;28;19921;-88
2022/08/02 00:53:54;;;;;;;;;;;;;;;18.20;62.80;101423.69;5062048;28;19921;-88
2022/08/02 00:56:19;;;;;;;;;;;;;;;18.20;62.57;101421.03;5058978;28;19925;-88
2022/08/02 00:58:44;;;;;;;;;;;;;;;18.17;62.51;101422.03;5041849;28;19931;-88
2022/08/02 01:01:10;;;;;;;;;;;;;;;18.20;62.56;101415.78;5056482;28;20401;-88
2022/08/02 01:03:35;;;;;;;;;;;;;;;18.16;62.70;101421.19;5080372;28;19926;-88
2022/08/02 01:06:00;;;;;;;;;;;;;;;18.16;62.47;101413.28;5066943;28;19917;-88
2022/08/02 01:08:25;;;;;;;;;;;;;;;18.17;62.39;101419.41;5063205;28;20027;-88
2022/08/02 01:10:51;;;;;;;;;;;;;;;18.13;62.57;101413.41;5060241;28;20003;-88
2022/08/02 01:13:16;;;;;;;;;;;;;;;18.15;62.59;101410.75;5060155;28;19925;-88
2022/08/02 01:15:44;;;;;;;;;;;;;;;18.11;62.84;101414.41;5054981;28;19928;-88
2022/08/02 01:18:40;;;;;;;;;;;;;;;18.13;62.66;101417.81;5058645;28;19921;-88
2022/08/02 01:21:08;;;;;;;;;;;;;;;18.10;62.71;101418.81;5059224;28;20011;-88
2022/08/02 01:23:53;;;;;;;;;;;;;;;18.05;62.83;101412.88;5065794;28;19928;-88
2022/08/02 01:26:37;;;;;;;;;;;;;;;18.10;62.75;101418.81;5056867;28;19931;-88
2022/08/02 01:29:02;;;;;;;;;;;;;;;18.10;62.69;101416.16;5076900;28;19928;-89
2022/08/02 01:31:27;;;;;;;;;;;;;;;18.09;62.21;101413.63;5063398;28;20347;-88
2022/08/02 01:34:01;;;;;;;;;;;;;;;18.02;62.57;101405.13;5072786;28;20468;-88
2022/08/02 01:36:30;;;;;;;;;;;;;;;18.04;62.64;101415.56;5068005;28;19943;-88
2022/08/02 01:38:56;;;;;;;;;;;;;;;18.03;63.33;101414.72;5066990;28;20035;-88
2022/08/02 01:41:24;;;;;;;;;;;;;;;18.02;63.00;101420.03;5065821;28;20007;-88
2022/08/02 01:43:51;;;;;;;;;;;;;;;18.01;62.93;101413.91;5079307;28;20015;-88
2022/08/02 01:46:17;;;;;;;;;;;;;;;17.98;62.78;101421.94;5062648;28;19924;-88
2022/08/02 01:48:44;;;;;;;;;;;;;;;18.02;62.93;101423.53;5061448;28;19956;-88
2022/08/02 01:51:11;;;;;;;;;;;;;;;18.03;62.88;101412.09;5062556;28;19917;-88
2022/08/02 01:53:37;;;;;;;;;;;;;;;17.94;62.57;101420.38;5077958;28;19924;-88
2022/08/02 01:56:04;;;;;;;;;;;;;;;17.92;62.61;101414.31;5050490;28;19931;-88
2022/08/02 01:58:32;;;;;;;;;;;;;;;17.91;62.41;101412.63;5064987;28;19924;-88
2022/08/02 02:00:58;;;;;;;;;;;;;;;17.91;62.58;101419.63;5055541;28;19920;-88
2022/08/02 02:03:25;;;;;;;;;;;;;;;17.94;62.75;101420.38;5070474;28;20298;-89
2022/08/02 02:05:53;;;;;;;;;;;;;;;17.90;63.00;101420.53;5053638;28;19921;-88
2022/08/02 02:08:20;;;;;;;;;;;;;;;17.91;62.80;101411.75;5069395;28;19947;-88
2022/08/02 02:10:45;;;;;;;;;;;;;;;17.89;62.96;101398.66;5069193;28;19920;-88
2022/08/02 02:13:12;;;;;;;;;;;;;;;17.92;62.63;101397.66;5051378;28;19931;-88
2022/08/02 02:15:40;;;;;;;;;;;;;;;17.93;62.90;101399.38;5064739;28;19970;-88
2022/08/02 02:18:06;;;;;;;;;;;;;;;17.90;62.75;101396.88;5061004;28;20656;-88
2022/08/02 02:20:32;;;;;;;;;;;;;;;17.85;62.76;101391.84;5044257;28;19926;-88
2022/08/02 02:22:57;;;;;;;;;;;;;;;17.91;62.87;101399.47;5065426;28;20015;-88
2022/08/02 02:25:23;;;;;;;;;;;;;;;17.94;62.78;101395.84;5064826;28;19928;-88
2022/08/02 02:27:59;;;;;;;;;;;;;;;18.01;62.58;101397.28;5044089;28;19960;-89
2022/08/02 02:30:25;;;;;;;;;;;;;;;17.89;62.63;101388.13;5083462;28;19916;-88
2022/08/02 02:32:51;;;;;;;;;;;;;;;17.89;62.65;101384.66;5063950;28;20023;-88
2022/08/02 02:35:18;;;;;;;;;;;;;;;17.84;62.83;101386.63;5068644;28;19925;-88
2022/08/02 02:37:44;;;;;;;;;;;;;;;17.84;63.01;101378.75;5068880;28;19932;-88
2022/08/02 02:40:10;;;;;;;;;;;;;;;17.89;63.00;101380.25;5071006;28;19977;-88
2022/08/02 02:42:36;;;;;;;;;;;;;;;17.82;63.13;101381.44;5072006;28;19920;-89
2022/08/02 02:45:03;;;;;;;;;;;;;;;17.76;62.95;101375.59;5074162;28;19978;-88
2022/08/02 02:47:29;;;;;;;;;;;;;;;17.68;63.31;101378.50;5065279;28;19931;-88
2022/08/02 02:49:56;;;;;;;;;;;;;;;17.66;63.26;101380.34;5066816;28;19928;-88
2022/08/02 02:52:21;;;;;;;;;;;;;;;17.67;63.83;101379.44;5045665;28;19947;-88
2022/08/02 02:54:47;;;;;;;;;;;;;;;17.68;63.27;101369.78;5062894;28;20496;-88
2022/08/02 02:57:16;;;;;;;;;;;;;;;17.70;63.34;101378.47;5064881;28;20402;-89
2022/08/02 02:59:41;;;;;;;;;;;;;;;17.68;63.09;101375.88;5067610;28;19923;-88
2022/08/02 03:02:09;;;;;;;;;;;;;;;17.66;63.24;101384.75;5059623;28;19920;-88
2022/08/02 03:04:34;;;;;;;;;;;;;;;17.62;63.25;101385.81;5047582;28;19924;-89
2022/08/02 03:07:00;;;;;;;;;;;;;;;17.60;63.30;101376.19;5060371;28;19978;-88
2022/08/02 03:09:25;;;;;;;;;;;;;;;17.60;63.07;101380.59;5066175;28;19977;-89
2022/08/02 03:11:52;;;;;;;;;;;;;;;17.59;63.39;101386.75;5062924;28;19909;-88
2022/08/02 03:14:18;;;;;;;;;;;;;;;17.56;63.26;101379.81;5057931;28;19927;-88
2022/08/02 03:16:47;;;;;;;;;;;;;;;17.49;63.43;101380.16;5061909;28;20504;-88
2022/08/02 03:19:13;;;;;;;;;;;;;;;17.52;63.52;101372.16;5076548;28;20238;-88
2022/08/02 03:21:38;;;;;;;;;;;;;;;17.51;63.44;101381.78;5065197;28;20738;-88
2022/08/02 03:24:04;;;;;;;;;;;;;;;17.46;63.57;101380.25;5039561;28;19967;-88
2022/08/02 03:26:29;;;;;;;;;;;;;;;17.48;63.66;101373.16;5061221;28;19930;-88
2022/08/02 03:28:55;;;;;;;;;;;;;;;17.45;63.79;101373.28;5047861;28;19924;-88
2022/08/02 03:31:20;;;;;;;;;;;;;;;17.44;63.58;101375.06;5044772;28;19971;-88
2022/08/02 03:33:46;;;;;;;;;;;;;;;17.39;63.97;101370.91;5061219;28;20002;-88
2022/08/02 03:36:12;;;;;;;;;;;;;;;17.35;64.19;101364.91;5060895;28;19932;-88
2022/08/02 03:38:38;;;;;;;;;;;;;;;17.32;64.19;101372.91;5044840;28;19976;-88
2022/08/02 03:41:04;;;;;;;;;;;;;;;17.37;64.30;101367.50;5059939;28;20406;-88
2022/08/02 03:43:30;;;;;;;;;;;;;;;17.33;64.14;101369.38;5046170;28;19990;-88
2022/08/02 03:45:57;;;;;;;;;;;;;;;17.45;63.90;101368.03;5056316;28;20099;-88
2022/08/02 03:48:22;;;;;;;;;;;;;;;17.34;64.14;101367.63;5042401;28;19962;-88
2022/08/02 03:50:49;;;;;;;;;;;;;;;17.41;64.11;101369.09;5046924;28;20542;-88
2022/08/02 03:53:15;;;;;;;;;;;;;;;17.39;64.36;101366.50;5062286;28;20426;-88
2022/08/02 03:55:40;;;;;;;;;;;;;;;17.47;63.77;101368.84;5069937;28;19920;-88
2022/08/02 03:58:06;;;;;;;;;;;;;;;17.30;64.07;101368.66;5053281;28;20548;-88
2022/08/02 04:00:31;;;;;;;;;;;;;;;17.39;64.01;101363.03;5048830;28;19965;-88
2022/08/02 04:02:57;;;;;;;;;;;;;;;17.35;64.62;101361.47;5061469;28;19970;-88
2022/08/02 04:05:22;;;;;;;;;;;;;;;17.37;64.21;101362.25;5056058;28;20430;-89
2022/08/02 04:07:48;;;;;;;;;;;;;;;17.35;64.23;101358.84;5062970;28;20319;-88
2022/08/02 04:10:13;;;;;;;;;;;;;;;17.34;64.52;101357.97;5042485;28;20398;-88
2022/08/02 04:12:38;;;;;;;;;;;;;;;17.29;64.68;101362.56;5046302;28;20624;-88
2022/08/02 04:15:05;;;;;;;;;;;;;;;17.33;64.43;101358.00;5045436;28;20021;-88
2022/08/02 04:17:36;;;;;;;;;;;;;;;17.31;64.49;101359.84;5041218;28;19960;-88
2022/08/02 04:20:11;;;;;;;;;;;;;;;17.22;64.37;101362.84;5057080;28;20548;-88
2022/08/02 04:22:39;;;;;;;;;;;;;;;17.16;65.11;101369.19;5061442;28;19920;-88
2022/08/02 04:25:06;;;;;;;;;;;;;;;17.24;64.94;101372.38;5041166;28;20797;-88
2022/08/02 04:27:35;;;;;;;;;;;;;;;17.20;65.37;101373.41;5039550;28;19917;-91
2022/08/02 04:30:00;;;;;;;;;;;;;;;17.26;65.01;101382.81;5039678;28;20311;-91
2022/08/02 04:32:26;;;;;;;;;;;;;;;17.36;64.31;101371.88;5063591;28;19927;-91
2022/08/02 04:34:52;;;;;;;;;;;;;;;17.38;64.58;101379.72;5017706;28;19920;-91
2022/08/02 04:37:17;;;;;;;;;;;;;;;17.30;65.02;101369.50;5073864;28;20338;-91
2022/08/02 04:39:42;;;;;;;;;;;;;;;17.29;65.09;101374.84;5062148;28;19931;-91
2022/08/02 04:42:08;;;;;;;;;;;;;;;17.29;65.17;101378.31;5080008;28;20415;-91
2022/08/02 04:44:33;;;;;;;;;;;;;;;17.27;65.13;101382.75;5085866;28;19928;-91
2022/08/02 04:47:01;;;;;;;;;;;;;;;17.28;65.43;101383.63;5047432;28;19931;-91
2022/08/02 04:49:26;;;;;;;;;;;;;;;17.30;64.95;101381.78;5060234;28;19971;-92
2022/08/02 04:51:52;;;;;;;;;;;;;;;17.30;65.31;101387.88;5044582;28;19928;-91
2022/08/02 04:54:17;;;;;;;;;;;;;;;17.30;65.33;101394.91;5060273;28;19939;-91
2022/08/02 04:56:42;;;;;;;;;;;;;;;17.28;65.12;101381.84;5079246;28;20309;-90
2022/08/02 04:59:08;;;;;;;;;;;;;;;17.33;64.98;101392.16;5061725;28;19924;-91
2022/08/02 05:01:38;;;;;;;;;;;;;;;17.34;65.19;101399.13;5052957;28;20030;-91
2022/08/02 05:04:03;;;;;;;;;;;;;;;17.32;65.33;101398.34;5087625;28;19930;-91
2022/08/02 05:06:28;;;;;;;;;;;;;;;17.34;65.27;101391.25;5066807;28;19920;-91
2022/08/02 05:08:54;;;;;;;;;;;;;;;17.32;65.38;101388.66;5089694;28;19920;-92
2022/08/02 05:11:20;;;;;;;;;;;;;;;17.33;65.47;101385.13;5087178;28;19920;-91
2022/08/02 05:13:45;;;;;;;;;;;;;;;17.35;65.56;101396.44;5088376;28;19924;-91
2022/08/02 05:16:11;;;;;;;;;;;;;;;17.39;65.23;101389.28;5086642;28;19924;-91
2022/08/02 05:18:36;;;;;;;;;;;;;;;17.35;65.47;101379.84;5082083;28;20372;-91
2022/08/02 05:21:01;;;;;;;;;;;;;;;17.34;65.65;101391.25;5090912;28;19919;-91
2022/08/02 05:23:27;;;;;;;;;;;;;;;17.41;65.45;101392.72;5068026;28;19932;-91
2022/08/02 05:25:52;;;;;;;;;;;;;;;17.47;65.59;101395.94;5052368;28;20344;-91
2022/08/02 05:28:17;;;;;;;;;;;;;;;17.43;65.84;101401.41;5062748;28;19959;-91
2022/08/02 05:30:43;;;;;;;;;;;;;;;17.53;65.72;101402.75;5047456;28;19963;-91
2022/08/02 05:33:08;;;;;;;;;;;;;;;17.57;65.87;101409.59;5064154;28;19943;-90
2022/08/02 05:35:34;;;;;;;;;;;;;;;17.53;66.26;101406.22;5068530;28;20026;-91
2022/08/02 05:37:59;;;;;;;;;;;;;;;17.59;66.61;101395.50;5073546;28;20019;-92
2022/08/02 05:40:24;;;;;;;;;;;;;;;17.61;66.59;101398.09;5047483;28;20019;-91
2022/08/02 05:42:50;;;;;;;;;;;;;;;17.68;66.56;101393.44;5047690;28;19928;-91
2022/08/02 05:45:16;;;;;;;;;;;;;;;17.75;66.67;101387.00;5033655;28;19936;-91
2022/08/02 05:47:41;;;;;;;;;;;;;;;17.78;67.01;101395.63;5061680;28;19969;-91
2022/08/02 05:50:10;;;;;;;;;;;;;;;17.83;66.75;101395.44;5045646;28;19925;-92
2022/08/02 05:52:41;;;;;;;;;;;;;;;17.84;67.08;101407.66;5057266;28;19991;-91
2022/08/02 05:55:08;;;;;;;;;;;;;;;17.85;67.11;101391.84;5050438;28;20271;-91
2022/08/02 05:57:43;;;;;;;;;;;;;;;17.86;66.65;101390.03;5059031;28;19924;-92
2022/08/02 06:00:10;;;;;;;;;;;;;;;17.89;66.80;101396.03;5051204;28;19917;-90
2022/08/02 06:02:41;;;;;;;;;;;;;;;17.93;66.81;101387.09;5051458;28;19971;-90
2022/08/02 06:05:14;;;;;;;;;;;;;;;17.95;66.81;101385.25;5064435;28;19925;-90
2022/08/02 06:07:41;;;;;;;;;;;;;;;17.93;66.82;101392.38;5051990;28;19924;-90
2022/08/02 06:10:07;;;;;;;;;;;;;;;18.03;65.89;101395.47;5055576;28;20420;-90
2022/08/02 06:12:34;;;;;;;;;;;;;;;17.99;66.14;101400.00;5049199;28;20035;-91
2022/08/02 06:15:01;;;;;;;;;;;;;;;18.04;66.30;101394.53;5069033;28;19916;-90
2022/08/02 06:17:27;;;;;;;;;;;;;;;18.04;65.87;101395.41;5051010;28;20071;-90
2022/08/02 06:19:54;;;;;;;;;;;;;;;18.04;65.80;101392.75;5048165;28;20007;-90
2022/08/02 06:22:19;;;;;;;;;;;;;;;18.00;66.00;101393.84;5063888;28;20662;-90
2022/08/02 06:24:45;;;;;;;;;;;;;;;18.01;65.51;101389.41;5056516;28;20473;-90
2022/08/02 06:27:12;;;;;;;;;;;;;;;18.10;65.82;101389.03;5050580;28;19912;-90
2022/08/02 06:29:39;;;;;;;;;;;;;;;18.11;65.78;101386.34;5038033;28;20352;-90
2022/08/02 06:32:06;;;;;;;;;;;;;;;18.15;65.87;101398.41;5032374;28;20489;-89
2022/08/02 06:34:34;;;;;;;;;;;;;;;18.14;66.14;101402.00;5010618;28;19927;-90
2022/08/02 06:37:11;;;;;;;;;;;;;;;18.16;65.86;101397.50;5043904;28;19935;-90
2022/08/02 06:39:44;;;;;;;;;;;;;;;18.23;65.39;101394.63;5054289;28;20373;-89
2022/08/02 06:42:11;;;;;;;;;;;;;;;18.26;65.32;101381.34;5063752;28;19920;-91
2022/08/02 06:44:37;;;;;;;;;;;;;;;18.29;64.91;101386.47;5065570;28;19927;-90
2022/08/02 06:47:03;;;;;;;;;;;;;;;18.26;64.93;101384.84;5061925;28;20737;-90
2022/08/02 06:49:28;;;;;;;;;;;;;;;18.27;64.80;101378.66;5062050;28;19947;-90
2022/08/02 06:51:53;;;;;;;;;;;;;;;18.33;64.61;101381.03;5064428;28;19955;-90
2022/08/02 06:54:20;;;;;;;;;;;;;;;18.35;64.48;101379.19;5044797;28;20597;-89
2022/08/02 06:56:46;;;;;;;;;;;;;;;18.39;64.18;101380.72;5051223;28;20441;-89
2022/08/02 06:59:11;;;;;;;;;;;;;;;18.37;64.34;101382.59;5064425;28;19966;-90
2022/08/02 07:01:37;;;;;;;;;;;;;;;18.42;64.64;101369.25;5047691;28;19925;-90
2022/08/02 07:04:02;;;;;;;;;;;;;;;18.43;64.44;101373.56;5047637;28;20850;-90
2022/08/02 07:06:28;;;;;;;;;;;;;;;18.46;64.24;101373.47;5041494;28;19965;-90
2022/08/02 07:08:53;;;;;;;;;;;;;;;18.45;64.22;101369.97;5069910;28;19924;-91
2022/08/02 07:11:19;;;;;;;;;;;;;;;18.46;64.31;101376.94;5065371;28;20409;-91
2022/08/02 07:13:44;;;;;;;;;;;;;;;18.49;64.15;101381.22;5070114;28;19924;-91
2022/08/02 07:16:09;;;;;;;;;;;;;;;18.55;64.18;101378.31;5037098;28;19924;-91
2022/08/02 07:18:35;;;;;;;;;;;;;;;18.56;63.79;101380.03;5050523;28;19950;-91
2022/08/02 07:21:00;;;;;;;;;;;;;;;18.58;63.64;101384.31;5065887;28;19916;-90
2022/08/02 07:23:26;;;;;;;;;;;;;;;18.58;64.25;101394.84;5040683;28;20628;-91
2022/08/02 07:25:51;;;;;;;;;;;;;;;18.64;63.97;101376.13;5063879;28;19928;-90
2022/08/02 07:28:16;;;;;;;;;;;;;;;18.62;63.96;101374.50;5047839;28;19927;-90
2022/08/02 07:30:42;;;;;;;;;;;;;;;18.63;64.03;101373.56;5059739;28;20015;-90
2022/08/02 07:33:07;;;;;;;;;;;;;;;18.67;64.06;101381.28;5042654;28;19951;-90
2022/08/02 07:35:32;;;;;;;;;;;;;;;18.70;63.78;101375.00;5050575;28;20082;-90
2022/08/02 07:37:57;;;;;;;;;;;;;;;18.74;63.81;101379.22;5080237;28;20596;-90
2022/08/02 07:40:23;;;;;;;;;;;;;;;18.74;63.87;101378.38;5067251;28;19924;-90
2022/08/02 07:42:53;;;;;;;;;;;;;;;18.77;63.44;101367.69;5062549;28;19931;-91
2022/08/02 07:45:20;;;;;;;;;;;;;;;18.86;63.06;101372.53;5084095;28;20389;-90
2022/08/02 07:47:45;;;;;;;;;;;;;;;18.83;63.81;101380.59;5090192;28;20312;-91
2022/08/02 07:50:11;;;;;;;;;;;;;;;18.88;63.20;101375.94;5080506;28;19931;-91
2022/08/02 07:52:37;;;;;;;;;;;;;;;18.93;62.82;101371.31;5065528;28;20675;-90
2022/08/02 07:55:03;;;;;;;;;;;;;;;18.92;62.69;101367.84;5082344;28;19982;-91
2022/08/02 07:57:28;;;;;;;;;;;;;;;18.96;62.86;101371.19;5062810;28;20686;-90
2022/08/02 07:59:55;;;;;;;;;;;;;;;18.93;63.66;101369.53;5063490;28;20513;-90
2022/08/02 08:02:23;;;;;;;;;;;;;;;18.96;63.31;101372.03;5076031;28;19931;-91
2022/08/02 08:04:48;;;;;;;;;;;;;;;18.97;63.34;101362.38;5074316;28;19928;-90
2022/08/02 08:07:14;;;;;;;;;;;;;;;18.96;63.72;101363.28;5055293;28;20733;-90
2022/08/02 08:09:42;;;;;;;;;;;;;;;18.97;63.61;101365.84;5051431;28;20030;-90
2022/08/02 08:12:08;;;;;;;;;;;;;;;19.01;63.10;101367.44;5088443;28;19931;-91
2022/08/02 08:14:34;;;;;;;;;;;;;;;19.06;62.48;101356.69;5085879;28;19928;-91
2022/08/02 08:16:59;;;;;;;;;;;;;;;19.07;62.12;101359.25;5067530;28;19926;-89
2022/08/02 08:19:24;;;;;;;;;;;;;;;19.11;62.08;101357.31;5079238;28;19927;-90
2022/08/02 08:21:50;;;;;;;;;;;;;;;19.15;61.49;101351.84;5051212;28;19927;-90
2022/08/02 08:24:15;;;;;;;;;;;;;;;19.12;62.02;101344.06;5059294;28;19921;-90
2022/08/02 08:26:40;;;;;;;;;;;;;;;19.13;62.49;101340.50;5087097;28;19923;-90
2022/08/02 08:29:06;;;;;;;;;;;;;;;19.14;62.26;101344.84;5077652;28;19946;-90
2022/08/02 08:31:31;;;;;;;;;;;;;;;19.14;62.67;101341.34;5066457;28;20015;-91
2022/08/02 08:33:57;;;;;;;;;;;;;;;19.15;62.36;101335.19;5085187;28;19924;-92
2022/08/02 08:36:22;;;;;;;;;;;;;;;19.17;62.11;101338.56;5082883;28;19956;-91
2022/08/02 08:38:49;;;;;;;;;;;;;;;19.23;61.79;101339.16;5066103;28;20023;-91
2022/08/02 08:41:15;;;;;;;;;;;;;;;19.28;61.54;101338.97;5066097;28;20605;-91
2022/08/02 08:43:40;;;;;;;;;;;;;;;19.16;62.52;101336.88;5082230;28;19981;-91
2022/08/02 08:46:07;;;;;;;;;;;;;;;19.16;62.20;101329.81;5060433;28;19932;-90
2022/08/02 08:48:36;;;;;;;;;;;;;;;19.23;62.45;101328.59;5064250;28;19932;-90
2022/08/02 08:51:22;;;;;;;;;;;;;;;19.23;62.34;101323.34;5079860;28;19920;-90
2022/08/02 08:53:48;;;;;;;;;;;;;;;19.33;60.92;101330.84;5073294;28;19940;-91
2022/08/02 08:56:14;;;;;;;;;;;;;;;19.25;62.45;101331.19;5062644;28;19928;-90
2022/08/02 08:58:39;;;;;;;;;;;;;;;19.30;61.66;101315.19;5081925;28;19920;-89
2022/08/02 09:01:05;;;;;;;;;;;;;;;19.27;62.40;101326.69;5067011;28;20119;-90
2022/08/02 09:03:30;;;;;;;;;;;;;;;19.24;63.44;101322.44;5079692;28;19920;-89
2022/08/02 09:05:59;;;;;;;;;;;;;;;19.39;61.08;101312.97;5076180;28;19920;-89
2022/08/02 09:08:28;;;;;;;;;;;;;;;19.39;61.28;101318.22;5080377;28;20658;-89
2022/08/02 09:10:54;;;;;;;;;;;;;;;19.33;62.38;101317.66;5057443;28;20361;-90
2022/08/02 09:13:23;;;;;;;;;;;;;;;19.32;61.78;101318.59;5048549;28;19927;-88
2022/08/02 09:15:53;;;;;;;;;;;;;;;19.43;60.59;101317.13;5081394;28;19924;-89
2022/08/02 09:18:19;;;;;;;;;;;;;;;19.38;61.05;101316.50;5083978;28;19999;-90
2022/08/02 09:20:57;;;;;;;;;;;;;;;19.35;62.82;101319.28;5054738;28;20019;-91
2022/08/02 09:23:23;;;;;;;;;;;;;;;19.32;62.72;101311.53;5082267;28;20309;-91
2022/08/02 09:25:59;;;;;;;;;;;;;;;19.35;63.70;101311.38;5080907;28;19951;-89
2022/08/02 09:28:26;;;;;;;;;;;;;;;19.41;61.54;101308.47;5083958;28;20326;-89
2022/08/02 09:30:52;;;;;;;;;;;;;;;19.36;63.76;101310.47;5083485;28;19931;-88
2022/08/02 09:33:24;;;;;;;;;;;;;;;19.36;63.71;101306.97;5067742;28;19920;-89
2022/08/02 09:35:57;;;;;;;;;;;;;;;19.39;64.08;101302.41;5081054;28;20700;-90
2022/08/02 09:38:22;;;;;;;;;;;;;;;19.39;63.59;101307.69;5060905;28;19932;-90
2022/08/02 09:40:48;;;;;;;;;;;;;;;19.42;63.63;101309.31;5071413;28;19924;-91
2022/08/02 09:43:16;;;;;;;;;;;;;;;19.40;63.42;101306.75;5052560;28;20391;-90
2022/08/02 09:45:42;;;;;;;;;;;;;;;19.61;59.74;101300.41;5047023;28;19928;-90
2022/08/02 09:48:08;;;;;;;;;;;;;;;19.64;60.24;101302.06;5064012;28;19920;-91
2022/08/02 09:50:35;;;;;;;;;;;;;;;19.75;58.72;101305.00;5046513;28;20375;-90
2022/08/02 09:53:01;;;;;;;;;;;;;;;19.69;59.25;101297.41;5060914;28;20588;-90
2022/08/02 09:55:27;;;;;;;;;;;;;;;19.67;59.47;101294.84;5060472;28;20183;-91
2022/08/02 09:57:53;;;;;;;;;;;;;;;19.69;58.90;101300.03;5058788;28;20838;-91
2022/08/02 10:00:19;;;;;;;;;;;;;;;19.83;57.55;101294.06;5085306;28;19943;-91
2022/08/02 10:03:03;;;;;;;;;;;;;;;19.57;58.89;101290.97;5047672;28;19947;-90
2022/08/02 10:05:29;;;;;;;;;;;;;;;19.82;57.15;101287.09;5059730;28;19935;-91
2022/08/02 10:07:55;;;;;;;;;;;;;;;20.03;56.33;101294.75;5066112;28;20437;-93
2022/08/02 10:10:21;;;;;;;;;;;;;;;20.05;56.15;101286.75;5042043;28;19920;-92
2022/08/02 10:12:46;;;;;;;;;;;;;;;20.09;57.23;101288.31;5037967;28;19931;-92
2022/08/02 10:15:11;;;;;;;;;;;;;;;19.78;59.20;101282.00;5057748;28;20389;-92
2022/08/02 10:17:37;;;;;;;;;;;;;;;20.24;56.39;101282.25;5062811;28;19920;-92
2022/08/02 10:20:02;;;;;;;;;;;;;;;20.17;57.00;101278.25;5045611;28;19985;-90
2022/08/02 10:22:28;;;;;;;;;;;;;;;20.32;56.70;101275.63;5063779;28;19920;-91
2022/08/02 10:24:54;;;;;;;;;;;;;;;20.11;57.53;101283.84;5064383;28;19931;-91
2022/08/02 10:27:19;;;;;;;;;;;;;;;20.23;56.62;101273.47;5029629;28;20389;-91
2022/08/02 10:29:46;;;;;;;;;;;;;;;20.00;57.43;101276.44;5067710;28;19917;-91
2022/08/02 10:32:14;;;;;;;;;;;;;;;20.12;57.06;101270.56;5056535;28;19916;-91
2022/08/02 10:34:39;;;;;;;;;;;;;;;20.17;55.71;101268.53;5041803;28;19928;-91
2022/08/02 10:37:05;;;;;;;;;;;;;;;20.14;57.47;101259.94;5071006;28;20496;-90
2022/08/02 10:39:38;;;;;;;;;;;;;;;20.21;55.77;101256.88;5086789;28;19912;-91
2022/08/02 10:42:04;;;;;;;;;;;;;;;20.16;57.06;101255.44;5069334;28;19924;-91
2022/08/02 10:44:31;;;;;;;;;;;;;;;20.11;56.13;101252.19;5064538;28;19984;-91
2022/08/02 10:47:16;;;;;;;;;;;;;;;20.18;55.78;101257.03;5048461;28;19916;-90
2022/08/02 10:49:50;;;;;;;;;;;;;;;20.64;52.83;101258.06;5091224;28;20381;-90
2022/08/02 10:52:16;;;;;;;;;;;;;;;20.22;56.51;101261.25;5078857;28;19920;-91
2022/08/02 10:54:42;;;;;;;;;;;;;;;20.40;53.99;101256.75;5087391;28;19927;-92
2022/08/02 10:57:16;;;;;;;;;;;;;;;20.17;55.46;101252.69;5063071;28;19917;-92
2022/08/02 10:59:42;;;;;;;;;;;;;;;20.25;54.77;101252.31;5090220;28;19916;-90
2022/08/02 11:02:07;;;;;;;;;;;;;;;20.05;58.24;101257.75;5086372;28;20386;-92
2022/08/02 11:04:35;;;;;;;;;;;;;;;20.07;56.89;101250.59;5076422;28;19931;-91
2022/08/02 11:07:17;;;;;;;;;;;;;;;20.79;50.87;101240.53;5061411;28;19924;-91
2022/08/02 11:09:43;;;;;;;;;;;;;;;20.23;54.79;101241.81;5072501;28;19916;-92
2022/08/02 11:12:10;;;;;;;;;;;;;;;20.56;51.05;101241.78;5088551;28;20298;-91
2022/08/02 11:14:40;;;;;;;;;;;;;;;20.49;52.29;101239.56;5063070;28;19920;-91
2022/08/02 11:17:06;;;;;;;;;;;;;;;20.52;50.68;101244.69;5065320;28;19927;-91
2022/08/02 11:19:32;;;;;;;;;;;;;;;20.70;49.54;101230.47;5074456;28;19919;-91
2022/08/02 11:22:02;;;;;;;;;;;;;;;20.74;48.82;101232.84;5086290;28;19916;-93
2022/08/02 11:24:32;;;;;;;;;;;;;;;20.70;49.72;101235.75;5092564;28;19920;-90
2022/08/02 11:27:01;;;;;;;;;;;;;;;20.22;56.70;101229.59;5086026;28;19966;-90
2022/08/02 11:29:40;;;;;;;;;;;;;;;20.43;50.66;101229.34;5092728;28;19920;-90
2022/08/02 11:32:07;;;;;;;;;;;;;;;20.63;51.15;101234.38;5086776;28;20355;-90
2022/08/02 11:34:32;;;;;;;;;;;;;;;20.18;52.87;101228.03;5086378;28;19966;-90
2022/08/02 11:36:58;;;;;;;;;;;;;;;20.21;55.56;101227.00;5085684;28;19967;-90
2022/08/02 11:39:24;;;;;;;;;;;;;;;20.25;56.74;101231.19;5064519;28;19959;-91
2022/08/02 11:41:53;;;;;;;;;;;;;;;20.43;51.92;101221.44;5083666;28;19923;-90
2022/08/02 11:44:19;;;;;;;;;;;;;;;20.93;48.32;101221.28;5086617;28;19923;-90
2022/08/02 11:46:52;;;;;;;;;;;;;;;21.12;48.02;101220.16;5074925;28;19933;-90
2022/08/02 11:49:17;;;;;;;;;;;;;;;21.04;47.25;101211.81;5062625;28;19921;-91
2022/08/02 11:51:59;;;;;;;;;;;;;;;20.52;55.32;101221.78;5083198;28;20378;-91
2022/08/02 11:54:28;;;;;;;;;;;;;;;20.37;55.25;101227.03;5078629;28;19924;-90
2022/08/02 11:56:54;;;;;;;;;;;;;;;20.73;51.20;101212.69;5067561;28;19924;-90
2022/08/02 11:59:19;;;;;;;;;;;;;;;20.54;56.15;101226.97;5086810;28;19927;-91
2022/08/02 12:01:44;;;;;;;;;;;;;;;20.23;54.72;101217.25;5086792;28;19947;-90
2022/08/02 12:04:15;;;;;;;;;;;;;;;20.72;50.91;101210.97;5081039;28;19978;-90
2022/08/02 12:06:41;;;;;;;;;;;;;;;20.59;56.72;101219.66;5084452;28;20393;-90
2022/08/02 12:09:07;;;;;;;;;;;;;;;21.42;46.23;101210.41;5071609;28;20306;-90
2022/08/02 12:11:33;;;;;;;;;;;;;;;21.30;46.68;101212.97;5083931;28;19969;-90
2022/08/02 12:13:58;;;;;;;;;;;;;;;21.10;49.44;101214.09;5057046;28;20344;-91
2022/08/02 12:19:22;;;;;;;;;;;;;;;21.42;45.04;101204.31;5080973;28;19923;-91
2022/08/02 12:21:48;;;;;;;;;;;;;;;20.93;47.41;101210.72;5088950;28;19931;-91
2022/08/02 12:24:28;;;;;;;;;;;;;;;21.36;45.92;101202.84;5085358;28;19942;-90
2022/08/02 12:26:54;;;;;;;;;;;;;;;21.67;44.84;101209.00;5085764;28;19985;-90
2022/08/02 12:29:29;;;;;;;;;;;;;;;22.01;44.67;101202.53;5086533;28;19916;-91
2022/08/02 12:31:54;;;;;;;;;;;;;;;21.86;44.91;101199.88;5077889;28;19959;-90
2022/08/02 12:34:20;;;;;;;;;;;;;;;22.09;44.48;101195.81;5050986;28;19959;-90
2022/08/02 12:36:58;;;;;;;;;;;;;;;21.66;48.81;101202.84;5085124;28;19939;-90